Time;durP1;ratioP1;P1;durP2;ratioP2;P2;SDS_P1;SDS_P2;PMS_P1;PMS_P2;Temp;Humidity;BMP_temperature;BMP_pressure;BME280_temperature;BME280_humidity;BME280_pressure;Samples;Min_cycle;Max_cycle;Signal;HPM_P1;HPM_P2
2022/07/06 00:00:43;;;;;;;2.63;1.40;;;20.40;91.90;;;;;;5047258;28;20208;-71
2022/07/06 00:03:10;;;;;;;1.23;1.03;;;20.40;92.10;;;;;;5045327;28;20212;-71
2022/07/06 00:05:38;;;;;;;2.27;1.27;;;20.30;92.60;;;;;;5027654;28;20213;-71
2022/07/06 00:08:05;;;;;;;2.10;1.33;;;20.30;92.40;;;;;;5027330;28;20840;-71
2022/07/06 00:10:32;;;;;;;1.83;1.00;;;20.30;92.60;;;;;;5027723;28;20231;-71
2022/07/06 00:12:59;;;;;;;3.20;1.00;;;20.30;92.60;;;;;;5029408;28;20803;-71
2022/07/06 00:15:26;;;;;;;3.63;1.37;;;20.30;92.70;;;;;;5047656;28;20220;-71
2022/07/06 00:17:52;;;;;;;1.93;1.40;;;20.20;92.70;;;;;;5047399;28;20214;-71
2022/07/06 00:20:19;;;;;;;3.50;1.30;;;20.20;92.80;;;;;;5047509;28;20204;-71
2022/07/06 00:22:47;;;;;;;1.83;1.43;;;20.20;92.80;;;;;;5047127;28;20581;-71
2022/07/06 00:25:14;;;;;;;2.23;1.30;;;20.20;92.90;;;;;;5047290;28;20598;-70
2022/07/06 00:27:41;;;;;;;3.73;1.40;;;20.20;93.00;;;;;;5047686;28;20212;-70
2022/07/06 00:30:09;;;;;;;3.77;1.40;;;20.20;93.40;;;;;;5047171;28;20232;-70
2022/07/06 00:32:35;;;;;;;1.20;1.10;;;20.10;93.10;;;;;;5046776;28;20204;-70
2022/07/06 00:35:02;;;;;;;1.50;1.40;;;20.20;93.20;;;;;;5047523;28;20200;-70
2022/07/06 00:37:29;;;;;;;5.93;1.60;;;20.20;93.20;;;;;;5047174;28;20368;-70
2022/07/06 00:39:58;;;;;;;3.23;1.53;;;20.10;93.10;;;;;;5047306;28;20208;-70
2022/07/06 00:42:25;;;;;;;2.23;1.10;;;20.10;92.90;;;;;;5046741;28;20691;-71
2022/07/06 00:44:51;;;;;;;3.23;1.00;;;20.10;92.80;;;;;;5046996;28;20240;-70
2022/07/06 00:47:18;;;;;;;0.90;0.90;;;20.10;93.20;;;;;;5047086;28;20223;-71
2022/07/06 00:52:29;;;;;;;2.20;0.77;;;20.00;92.90;;;;;;5046584;28;20195;-71
2022/07/06 00:54:58;;;;;;;1.23;0.80;;;19.90;92.90;;;;;;5050806;28;20208;-70
2022/07/06 00:57:25;;;;;;;6.00;0.93;;;19.90;93.10;;;;;;5050416;28;20569;-70
2022/07/06 00:59:52;;;;;;;3.07;1.30;;;19.80;93.10;;;;;;5050454;28;20573;-70
2022/07/06 01:02:20;;;;;;;1.50;0.93;;;19.70;93.30;;;;;;5050194;28;20212;-70
2022/07/06 01:04:47;;;;;;;3.20;0.93;;;19.70;93.40;;;;;;5050552;28;20235;-70
2022/07/06 01:07:13;;;;;;;2.77;1.10;;;19.70;93.50;;;;;;5050389;28;20235;-70
2022/07/06 01:09:40;;;;;;;1.10;1.00;;;19.70;93.60;;;;;;5050293;28;20578;-70
2022/07/06 01:12:09;;;;;;;1.67;1.00;;;19.80;93.80;;;;;;5050597;28;20205;-70
2022/07/06 01:14:37;;;;;;;4.47;1.00;;;19.80;93.90;;;;;;5037308;28;20687;-70
2022/07/06 01:17:04;;;;;;;2.90;0.80;;;19.80;93.90;;;;;;5046303;28;20218;-70
2022/07/06 01:19:31;;;;;;;2.40;0.90;;;19.80;93.90;;;;;;5050497;28;20212;-70
2022/07/06 01:21:59;;;;;;;1.33;1.20;;;19.70;93.90;;;;;;5050057;28;20208;-70
2022/07/06 01:24:26;;;;;;;3.47;0.90;;;19.70;93.90;;;;;;5049687;28;20228;-70
2022/07/06 01:26:53;;;;;;;1.03;0.80;;;19.70;94.00;;;;;;5050139;28;20204;-70
2022/07/06 01:29:20;;;;;;;1.97;1.00;;;19.70;94.20;;;;;;5049955;28;20196;-70
2022/07/06 01:31:48;;;;;;;1.30;1.20;;;19.70;94.10;;;;;;5049644;28;20228;-71
2022/07/06 01:34:16;;;;;;;3.33;1.20;;;19.60;94.50;;;;;;5050066;28;20216;-70
2022/07/06 01:36:44;;;;;;;1.23;0.97;;;19.60;94.60;;;;;;5049766;28;20207;-70
2022/07/06 01:39:12;;;;;;;1.27;1.00;;;19.60;94.30;;;;;;5049961;28;20212;-70
2022/07/06 01:41:39;;;;;;;1.40;0.80;;;19.50;94.40;;;;;;5040356;28;20205;-71
2022/07/06 01:44:06;;;;;;;3.57;1.20;;;19.50;94.40;;;;;;5031418;28;20290;-70
2022/07/06 01:46:33;;;;;;;2.00;1.13;;;19.50;94.90;;;;;;5035264;28;20219;-70
2022/07/06 01:49:00;;;;;;;1.83;0.80;;;19.60;94.60;;;;;;5050046;28;20204;-70
2022/07/06 01:51:27;;;;;;;1.20;1.10;;;19.50;94.60;;;;;;5049590;28;20572;-69
2022/07/06 01:53:54;;;;;;;1.07;0.97;;;19.50;94.70;;;;;;5050022;28;20715;-69
2022/07/06 01:56:23;;;;;;;5.00;1.07;;;19.50;94.80;;;;;;5048523;28;20207;-69
2022/07/06 01:58:50;;;;;;;2.90;1.20;;;19.50;94.80;;;;;;5041694;28;20561;-69
2022/07/06 02:01:19;;;;;;;1.57;1.17;;;19.30;95.00;;;;;;5049506;28;20206;-69
2022/07/06 02:03:46;;;;;;;4.20;1.50;;;19.20;95.40;;;;;;5049409;28;20207;-70
2022/07/06 02:06:25;;;;;;;3.57;1.07;;;19.00;96.20;;;;;;5048465;28;20236;-69
2022/07/06 02:08:54;;;;;;;1.67;0.90;;;18.70;97.10;;;;;;5049468;28;20218;-69
2022/07/06 02:11:22;;;;;;;3.70;1.33;;;18.60;97.70;;;;;;5049276;28;20209;-71
2022/07/06 02:13:48;;;;;;;3.53;1.20;;;18.60;98.40;;;;;;5049171;28;20204;-71
2022/07/06 02:16:27;;;;;;;2.47;1.70;;;18.60;99.30;;;;;;5048767;28;20212;-71
2022/07/06 02:18:54;;;;;;;2.23;1.40;;;18.70;99.90;;;;;;5049267;28;20192;-71
2022/07/06 02:21:25;;;;;;;2.60;1.60;;;18.70;99.90;;;;;;5049207;28;20208;-71
2022/07/06 02:23:52;;;;;;;2.40;1.17;;;18.70;99.90;;;;;;5049374;28;20206;-71
2022/07/06 02:26:33;;;;;;;1.73;1.33;;;18.80;99.90;;;;;;5048850;28;20706;-71
2022/07/06 02:28:59;;;;;;;1.27;1.17;;;18.90;99.90;;;;;;5048920;28;20207;-71
2022/07/06 02:31:26;;;;;;;1.27;1.17;;;18.90;99.90;;;;;;5048431;28;20725;-71
2022/07/06 02:33:53;;;;;;;2.77;1.53;;;19.00;99.90;;;;;;5048834;28;20200;-71
2022/07/06 02:36:20;;;;;;;2.67;1.30;;;19.00;99.90;;;;;;5048659;28;20208;-71
2022/07/06 02:38:47;;;;;;;1.77;1.30;;;19.00;99.90;;;;;;5048623;28;20830;-71
2022/07/06 02:41:20;;;;;;;0.90;0.90;;;19.00;99.90;;;;;;5048872;28;20590;-71
2022/07/06 02:43:48;;;;;;;3.50;1.13;;;19.00;99.90;;;;;;5048965;28;20211;-71
2022/07/06 02:46:21;;;;;;;1.93;1.40;;;19.00;99.90;;;;;;5048422;28;20452;-72
2022/07/06 02:48:47;;;;;;;1.83;1.23;;;19.00;99.90;;;;;;5048404;28;20313;-71
2022/07/06 02:51:28;;;;;;;4.53;1.43;;;18.90;99.90;;;;;;5048445;28;20210;-71
2022/07/06 02:53:55;;;;;;;2.20;1.30;;;18.90;99.90;;;;;;5048335;28;20207;-71
2022/07/06 02:56:37;;;;;;;3.83;1.50;;;18.90;99.90;;;;;;5048407;28;20216;-70
2022/07/06 02:59:05;;;;;;;2.10;1.13;;;18.90;99.90;;;;;;5048242;28;20207;-69
2022/07/06 03:01:35;;;;;;;2.90;1.60;;;18.90;99.90;;;;;;5048182;28;20721;-69
2022/07/06 03:04:01;;;;;;;1.77;1.10;;;18.90;99.90;;;;;;5048670;28;20230;-69
2022/07/06 03:06:28;;;;;;;1.83;1.33;;;18.80;99.90;;;;;;5047281;28;20232;-71
2022/07/06 03:08:55;;;;;;;1.57;1.23;;;18.80;99.90;;;;;;5048218;28;20204;-69
2022/07/06 03:11:25;;;;;;;2.67;1.43;;;18.70;99.90;;;;;;5048437;28;20212;-68
2022/07/06 03:13:51;;;;;;;5.10;1.60;;;18.70;99.90;;;;;;5048847;28;20208;-70
2022/07/06 03:16:29;;;;;;;2.50;1.30;;;18.60;99.90;;;;;;5037630;28;20204;-71
2022/07/06 03:18:55;;;;;;;1.40;1.30;;;18.50;99.90;;;;;;5034398;28;20211;-70
2022/07/06 03:21:25;;;;;;;3.23;1.30;;;18.50;99.90;;;;;;5045921;28;20220;-70
2022/07/06 03:23:52;;;;;;;1.50;1.40;;;18.50;99.90;;;;;;5045776;28;20212;-70
2022/07/06 03:26:22;;;;;;;2.63;1.53;;;18.50;99.90;;;;;;5045683;28;20698;-70
2022/07/06 03:28:49;;;;;;;2.07;1.20;;;18.50;99.90;;;;;;5034450;28;20537;-70
2022/07/06 03:31:42;;;;;;;3.87;1.33;;;18.50;99.90;;;;;;5045686;28;20246;-71
2022/07/06 03:34:09;;;;;;;2.53;1.20;;;18.50;99.90;;;;;;5045752;28;20197;-71
2022/07/06 03:36:35;;;;;;;3.57;1.47;;;18.50;99.90;;;;;;5045096;28;20933;-71
2022/07/06 03:39:02;;;;;;;2.33;1.73;;;18.50;99.90;;;;;;5045704;28;20208;-71
2022/07/06 03:41:32;;;;;;;1.57;1.33;;;18.40;99.90;;;;;;5044534;28;20254;-71
2022/07/06 03:43:59;;;;;;;1.60;1.50;;;18.40;99.90;;;;;;5044739;28;20204;-71
2022/07/06 03:46:26;;;;;;;3.27;1.43;;;18.30;99.90;;;;;;5047802;28;20227;-71
2022/07/06 03:48:54;;;;;;;1.53;1.43;;;18.30;99.90;;;;;;5040150;28;20570;-71
2022/07/06 03:51:21;;;;;;;2.20;1.40;;;18.30;99.90;;;;;;5029000;28;20576;-70
2022/07/06 03:53:48;;;;;;;2.03;1.50;;;18.40;99.90;;;;;;5028367;28;20204;-70
2022/07/06 03:56:29;;;;;;;4.03;1.83;;;18.40;99.90;;;;;;5027856;28;20204;-69
2022/07/06 03:58:56;;;;;;;2.10;1.40;;;18.40;99.90;;;;;;5048058;28;20203;-70
2022/07/06 04:01:23;;;;;;;1.63;1.30;;;18.30;99.90;;;;;;5039333;28;20204;-69
2022/07/06 04:03:50;;;;;;;1.60;1.50;;;18.30;99.90;;;;;;5041758;28;20689;-71
2022/07/06 04:06:36;;;;;;;2.97;1.47;;;18.20;99.90;;;;;;5045764;28;20318;-71
2022/07/06 04:09:03;;;;;;;1.60;1.27;;;18.20;99.90;;;;;;5046973;28;20219;-71
2022/07/06 04:11:29;;;;;;;3.67;1.53;;;18.30;99.90;;;;;;5043414;28;20659;-71
2022/07/06 04:13:56;;;;;;;2.87;1.80;;;18.10;99.90;;;;;;5039100;28;20652;-71
2022/07/06 04:16:23;;;;;;;2.43;1.80;;;18.10;99.90;;;;;;5038467;28;20836;-72
2022/07/06 04:18:50;;;;;;;1.77;1.60;;;17.90;99.90;;;;;;5034379;28;20212;-71
2022/07/06 04:21:25;;;;;;;3.73;1.37;;;17.80;99.90;;;;;;5031926;28;20211;-71
2022/07/06 04:23:54;;;;;;;1.67;1.57;;;17.50;99.90;;;;;;5034165;28;20218;-71
2022/07/06 04:26:33;;;;;;;3.70;1.40;;;17.40;99.90;;;;;;5040937;28;20320;-71
2022/07/06 04:29:00;;;;;;;3.00;1.30;;;17.30;99.90;;;;;;5041369;28;20218;-71
2022/07/06 04:31:26;;;;;;;2.60;1.50;;;17.20;99.90;;;;;;5039729;28;20671;-71
2022/07/06 04:33:53;;;;;;;1.83;1.30;;;17.30;99.90;;;;;;5036302;28;20200;-71
2022/07/06 04:36:42;;;;;;;2.13;1.57;;;17.20;99.90;;;;;;5043394;28;20212;-71
2022/07/06 04:39:10;;;;;;;2.70;1.73;;;17.30;99.90;;;;;;5028866;28;20558;-71
2022/07/06 04:41:37;;;;;;;3.97;1.63;;;17.30;99.90;;;;;;5022561;28;20287;-71
2022/07/06 04:44:04;;;;;;;3.43;1.90;;;17.30;99.90;;;;;;5033049;28;20658;-71
2022/07/06 04:46:31;;;;;;;3.40;1.70;;;17.30;99.90;;;;;;5036555;28;20562;-71
2022/07/06 04:48:58;;;;;;;3.10;2.40;;;17.30;99.90;;;;;;5035711;28;20208;-71
2022/07/06 04:51:25;;;;;;;2.40;1.80;;;17.30;99.90;;;;;;5042106;28;20200;-71
2022/07/06 04:53:51;;;;;;;2.30;1.60;;;17.40;99.90;;;;;;5038354;28;20207;-71
2022/07/06 04:56:29;;;;;;;3.63;1.73;;;17.30;99.90;;;;;;5036435;28;20204;-71
2022/07/06 04:58:55;;;;;;;5.33;1.40;;;17.40;99.90;;;;;;5037518;28;20203;-71
2022/07/06 05:01:22;;;;;;;1.73;1.60;;;17.40;99.90;;;;;;5039953;28;20212;-71
2022/07/06 05:03:49;;;;;;;2.70;1.40;;;17.40;99.90;;;;;;5038873;28;20196;-71
2022/07/06 05:06:19;;;;;;;6.00;1.70;;;17.40;99.90;;;;;;5038118;28;20805;-71
2022/07/06 05:08:46;;;;;;;5.93;1.50;;;17.50;99.90;;;;;;5040722;28;20622;-71
2022/07/06 05:11:19;;;;;;;3.13;1.70;;;17.40;99.90;;;;;;5040371;28;20204;-71
2022/07/06 05:13:49;;;;;;;5.97;2.03;;;17.60;99.90;;;;;;5039783;28;20216;-71
2022/07/06 05:16:28;;;;;;;7.23;1.73;;;17.60;99.90;;;;;;5038246;28;20201;-71
2022/07/06 05:18:55;;;;;;;3.93;2.60;;;17.50;99.90;;;;;;5037842;28;20196;-71
2022/07/06 05:21:28;;;;;;;3.47;2.20;;;17.50;99.90;;;;;;5038586;28;20207;-71
2022/07/06 05:23:55;;;;;;;5.77;1.93;;;17.40;99.90;;;;;;5040550;28;20570;-71
2022/07/06 05:26:40;;;;;;;3.30;1.63;;;17.40;99.90;;;;;;5036670;28;20736;-71
2022/07/06 05:29:08;;;;;;;2.87;1.63;;;17.20;99.90;;;;;;5040425;28;20212;-71
2022/07/06 05:31:35;;;;;;;3.07;1.80;;;17.20;99.90;;;;;;5040126;28;20228;-71
2022/07/06 05:34:02;;;;;;;5.13;1.60;;;17.20;99.90;;;;;;5035858;28;20201;-71
2022/07/06 05:36:31;;;;;;;3.17;1.90;;;17.10;99.90;;;;;;5036700;28;20205;-71
2022/07/06 05:38:58;;;;;;;7.07;2.07;;;17.20;99.90;;;;;;5041282;28;20197;-71
2022/07/06 05:41:27;;;;;;;2.97;1.70;;;17.30;99.90;;;;;;5038277;28;20196;-71
2022/07/06 05:43:54;;;;;;;3.40;1.37;;;17.40;99.90;;;;;;5031072;28;20219;-71
2022/07/06 05:46:26;;;;;;;6.17;1.53;;;17.40;99.90;;;;;;5036358;28;20224;-71
2022/07/06 05:51:37;;;;;;;4.87;1.40;;;17.60;99.90;;;;;;5039716;28;21202;-71
2022/07/06 05:54:03;;;;;;;2.43;1.47;;;17.60;99.90;;;;;;5036146;28;20228;-71
2022/07/06 05:56:30;;;;;;;5.50;1.63;;;17.20;99.90;;;;;;5037092;28;20201;-71
2022/07/06 05:58:57;;;;;;;3.43;1.40;;;17.10;99.90;;;;;;5037743;28;20204;-71
2022/07/06 06:01:31;;;;;;;5.63;1.53;;;17.20;99.90;;;;;;5039340;28;20196;-71
2022/07/06 06:03:59;;;;;;;4.03;1.40;;;17.40;99.90;;;;;;5037596;28;20186;-71
2022/07/06 06:06:31;;;;;;;5.73;1.53;;;17.50;99.90;;;;;;5039847;28;20231;-71
2022/07/06 06:08:58;;;;;;;4.20;1.70;;;17.60;99.90;;;;;;5037466;28;20531;-71
2022/07/06 06:11:24;;;;;;;4.40;1.83;;;17.60;99.90;;;;;;5036482;28;20514;-71
2022/07/06 06:13:51;;;;;;;4.43;2.10;;;17.60;99.90;;;;;;5033814;28;20216;-71
2022/07/06 06:16:27;;;;;;;3.70;1.50;;;17.70;99.90;;;;;;5040664;28;20215;-71
2022/07/06 06:18:55;;;;;;;3.67;1.57;;;17.70;99.90;;;;;;5037751;28;20208;-71
2022/07/06 06:21:22;;;;;;;4.30;2.07;;;17.70;99.90;;;;;;5038570;28;20209;-71
2022/07/06 06:23:48;;;;;;;2.87;1.60;;;17.70;99.90;;;;;;5036135;28;20516;-71
2022/07/06 06:26:24;;;;;;;2.63;1.50;;;17.70;99.90;;;;;;5035117;28;20695;-71
2022/07/06 06:28:51;;;;;;;2.67;1.70;;;17.30;99.90;;;;;;5037980;28;20666;-71
2022/07/06 06:31:21;;;;;;;5.60;2.30;;;17.20;99.90;;;;;;5036269;28;20312;-71
2022/07/06 06:33:47;;;;;;;2.20;1.10;;;17.20;99.90;;;;;;5043852;28;20197;-71
2022/07/06 06:36:28;;;;;;;3.60;1.50;;;17.20;99.90;;;;;;5038178;28;20210;-71
2022/07/06 06:38:55;;;;;;;2.77;1.53;;;17.30;99.90;;;;;;5036984;28;20236;-71
2022/07/06 06:41:24;;;;;;;5.53;1.80;;;17.40;99.90;;;;;;5042182;28;20686;-71
2022/07/06 06:43:51;;;;;;;4.57;1.40;;;17.50;99.90;;;;;;5042534;28;20204;-71
2022/07/06 06:46:21;;;;;;;2.33;1.27;;;17.50;99.90;;;;;;5031772;28;20233;-71
2022/07/06 06:48:47;;;;;;;3.83;1.53;;;17.60;99.90;;;;;;5031058;28;20636;-71
2022/07/06 06:51:34;;;;;;;4.87;1.73;;;17.50;99.90;;;;;;5031703;28;20212;-71
2022/07/06 06:54:01;;;;;;;3.23;1.57;;;17.50;99.90;;;;;;5043346;28;20208;-71
2022/07/06 06:56:28;;;;;;;4.07;1.20;;;17.60;99.90;;;;;;5045356;28;20204;-71
2022/07/06 06:58:55;;;;;;;11.30;1.70;;;17.70;99.90;;;;;;5031246;28;20205;-71
2022/07/06 07:01:21;;;;;;;2.50;1.13;;;18.00;99.90;;;;;;5038079;28;20236;-71
2022/07/06 07:03:48;;;;;;;2.73;1.30;;;18.20;99.90;;;;;;5030638;28;20208;-71
2022/07/06 07:06:30;;;;;;;1.43;1.00;;;18.40;99.90;;;;;;5047724;28;20635;-71
2022/07/06 07:09:01;;;;;;;2.87;1.10;;;18.50;99.90;;;;;;5048134;28;20200;-71
2022/07/06 07:11:28;;;;;;;2.73;1.13;;;18.60;99.90;;;;;;5047684;28;20204;-71
2022/07/06 07:13:55;;;;;;;4.10;1.53;;;18.80;99.90;;;;;;5048041;28;20212;-71
2022/07/06 07:16:27;;;;;;;2.23;1.20;;;18.80;99.50;;;;;;5047399;28;20216;-71
2022/07/06 07:18:53;;;;;;;4.87;1.27;;;18.60;98.90;;;;;;5040628;28;20694;-71
2022/07/06 07:21:35;;;;;;;4.23;1.93;;;18.50;99.40;;;;;;5036989;28;20204;-71
2022/07/06 07:24:04;;;;;;;1.33;1.03;;;18.60;99.20;;;;;;5047616;28;20207;-71
2022/07/06 07:26:31;;;;;;;3.10;1.03;;;18.50;99.00;;;;;;5046662;28;20243;-71
2022/07/06 07:28:57;;;;;;;2.90;1.00;;;18.70;98.70;;;;;;5031654;28;20203;-71
2022/07/06 07:31:24;;;;;;;3.37;0.80;;;18.70;99.00;;;;;;5035424;28;20241;-71
2022/07/06 07:33:51;;;;;;;2.30;1.10;;;18.70;98.60;;;;;;5032367;28;20212;-71
2022/07/06 07:36:33;;;;;;;3.67;0.83;;;18.80;98.80;;;;;;5036115;28;20208;-71
2022/07/06 07:39:00;;;;;;;3.17;1.20;;;18.80;98.00;;;;;;5037802;28;20201;-71
2022/07/06 07:41:28;;;;;;;1.20;0.73;;;18.80;98.20;;;;;;5036820;28;20201;-71
2022/07/06 07:43:55;;;;;;;4.23;0.90;;;18.70;98.20;;;;;;5040040;28;20214;-71
2022/07/06 07:46:28;;;;;;;3.33;1.17;;;18.60;98.70;;;;;;5038381;28;20566;-71
2022/07/06 07:48:55;;;;;;;1.23;0.73;;;18.70;99.20;;;;;;5035054;28;20204;-71
2022/07/06 07:51:25;;;;;;;1.00;0.80;;;18.90;99.00;;;;;;5039578;28;20211;-71
2022/07/06 07:53:51;;;;;;;1.83;0.70;;;19.10;98.70;;;;;;5036321;28;20804;-71
2022/07/06 07:56:29;;;;;;;6.23;1.70;;;19.20;98.40;;;;;;5036794;28;20563;-71
2022/07/06 07:58:56;;;;;;;6.77;1.10;;;19.30;98.20;;;;;;5037785;28;20208;-71
2022/07/06 08:01:22;;;;;;;4.10;1.10;;;19.40;97.80;;;;;;5036324;28;20214;-71
2022/07/06 08:03:49;;;;;;;2.10;0.90;;;19.50;97.90;;;;;;5031551;28;20204;-71
2022/07/06 08:06:34;;;;;;;3.13;1.40;;;19.50;97.70;;;;;;5031460;28;20239;-71
2022/07/06 08:09:04;;;;;;;2.40;1.10;;;19.50;97.70;;;;;;5037010;28;20838;-71
2022/07/06 08:11:38;;;;;;;1.43;0.80;;;19.40;97.10;;;;;;5041085;28;20224;-71
2022/07/06 08:14:05;;;;;;;2.37;1.10;;;19.40;97.60;;;;;;5037075;28;20201;-71
2022/07/06 08:16:33;;;;;;;1.70;1.03;;;19.50;97.30;;;;;;5034543;28;20294;-71
2022/07/06 08:18:59;;;;;;;1.77;1.67;;;19.40;97.00;;;;;;5039049;28;20667;-71
2022/07/06 08:21:26;;;;;;;4.73;1.87;;;19.10;96.60;;;;;;5034463;28;20211;-71
2022/07/06 08:23:54;;;;;;;3.10;1.40;;;19.00;97.40;;;;;;5037755;28;20571;-71
2022/07/06 08:26:24;;;;;;;5.23;1.57;;;19.00;97.70;;;;;;5035325;28;20234;-72
2022/07/06 08:28:52;;;;;;;1.87;0.77;;;19.10;97.80;;;;;;5034193;28;20679;-71
2022/07/06 08:31:21;;;;;;;1.57;0.70;;;19.30;97.40;;;;;;5031536;28;20244;-71
2022/07/06 08:33:48;;;;;;;3.77;1.10;;;19.30;96.80;;;;;;5035201;28;20208;-71
2022/07/06 08:36:24;;;;;;;7.27;1.23;;;19.30;96.60;;;;;;5033841;28;20211;-71
2022/07/06 08:38:51;;;;;;;2.10;0.97;;;19.20;96.00;;;;;;5037193;28;20208;-71
2022/07/06 08:41:30;;;;;;;0.77;0.60;;;19.10;96.40;;;;;;5038189;28;20287;-71
2022/07/06 08:43:58;;;;;;;0.93;0.87;;;19.10;95.70;;;;;;5036672;28;20211;-71
2022/07/06 08:46:27;;;;;;;10.60;1.30;;;18.90;95.70;;;;;;5040346;28;20238;-71
2022/07/06 08:48:55;;;;;;;2.23;0.67;;;18.90;95.10;;;;;;5037514;28;20208;-71
2022/07/06 08:51:25;;;;;;;1.70;0.60;;;18.90;94.80;;;;;;5032089;28;20193;-71
2022/07/06 08:53:53;;;;;;;1.90;0.80;;;18.80;95.20;;;;;;5031354;28;20204;-71
2022/07/06 08:56:24;;;;;;;2.10;0.70;;;18.80;95.30;;;;;;5037964;28;20576;-71
2022/07/06 08:58:52;;;;;;;1.93;1.00;;;19.00;95.00;;;;;;5033919;28;20217;-71
2022/07/06 09:01:28;;;;;;;3.00;1.20;;;19.10;94.50;;;;;;5033681;28;20197;-71
2022/07/06 09:03:56;;;;;;;2.53;0.90;;;19.20;93.50;;;;;;5037310;28;20209;-71
2022/07/06 09:06:26;;;;;;;3.20;0.90;;;19.30;93.30;;;;;;5034430;28;20794;-71
2022/07/06 09:08:55;;;;;;;3.07;0.60;;;19.30;93.00;;;;;;5036736;28;20203;-71
2022/07/06 09:11:28;;;;;;;2.80;0.87;;;19.20;93.30;;;;;;5033768;28;20229;-71
2022/07/06 09:13:55;;;;;;;2.10;0.60;;;19.10;93.60;;;;;;5034984;28;20204;-71
2022/07/06 09:16:29;;;;;;;1.00;0.77;;;19.20;93.70;;;;;;5041632;28;20196;-71
2022/07/06 09:18:56;;;;;;;1.07;1.00;;;19.20;92.40;;;;;;5039646;28;20212;-71
2022/07/06 09:21:24;;;;;;;2.53;0.50;;;19.40;92.80;;;;;;5040914;28;20753;-71
2022/07/06 09:23:54;;;;;;;0.60;0.60;;;19.50;90.60;;;;;;5040228;28;20208;-71
2022/07/06 09:26:25;;;;;;;3.30;0.73;;;19.40;90.60;;;;;;5035618;28;20204;-71
2022/07/06 09:28:52;;;;;;;1.17;0.50;;;19.30;91.50;;;;;;5043055;28;20212;-71
2022/07/06 09:31:24;;;;;;;2.57;1.07;;;19.30;92.30;;;;;;5035850;28;20232;-71
2022/07/06 09:33:56;;;;;;;2.93;1.30;;;19.30;92.20;;;;;;5033833;28;20295;-71
2022/07/06 09:36:47;;;;;;;0.50;0.40;;;19.30;92.60;;;;;;5048890;28;20678;-71
2022/07/06 09:39:18;;;;;;;2.00;0.60;;;19.30;92.10;;;;;;5049286;28;20197;-71
2022/07/06 09:41:45;;;;;;;2.73;0.67;;;19.20;92.00;;;;;;5043587;28;20212;-71
2022/07/06 09:44:12;;;;;;;1.60;1.10;;;19.10;92.50;;;;;;5042848;28;20275;-71
2022/07/06 09:46:43;;;;;;;4.73;1.00;;;19.10;92.90;;;;;;5035817;28;20235;-71
2022/07/06 09:49:11;;;;;;;2.50;0.73;;;19.10;93.20;;;;;;5042383;28;20200;-71
2022/07/06 09:52:27;;;;;;;5.77;1.47;;;19.20;93.40;;;;;;5038254;28;20456;-71
2022/07/06 09:54:54;;;;;;;2.13;1.00;;;19.20;93.20;;;;;;5035404;28;20667;-71
2022/07/06 09:57:23;;;;;;;1.37;0.77;;;19.10;93.20;;;;;;5038549;28;20220;-71
2022/07/06 09:59:51;;;;;;;1.73;0.70;;;19.00;93.40;;;;;;5042722;28;20236;-71
2022/07/06 10:02:36;;;;;;;2.80;0.60;;;19.10;93.90;;;;;;5038532;28;20936;-71
2022/07/06 10:05:05;;;;;;;1.80;0.50;;;19.20;93.40;;;;;;5039955;28;20455;-71
2022/07/06 10:07:33;;;;;;;3.30;0.57;;;19.20;93.40;;;;;;5038743;28;20234;-71
2022/07/06 10:10:00;;;;;;;2.10;0.60;;;19.10;93.80;;;;;;5037254;28;20209;-71
2022/07/06 10:12:27;;;;;;;1.87;1.10;;;19.30;94.10;;;;;;5038680;28;20279;-71
2022/07/06 10:14:53;;;;;;;1.23;0.70;;;19.30;93.60;;;;;;5037847;28;20216;-71
2022/07/06 10:17:22;;;;;;;2.53;0.83;;;19.50;93.20;;;;;;5036249;28;20652;-71
2022/07/06 10:19:52;;;;;;;2.33;0.77;;;19.60;93.30;;;;;;5038330;28;20204;-71
2022/07/06 10:22:20;;;;;;;1.83;0.53;;;19.60;93.40;;;;;;5035117;28;20200;-71
2022/07/06 10:24:48;;;;;;;1.17;0.60;;;19.70;93.70;;;;;;5038755;28;20204;-71
2022/07/06 10:27:16;;;;;;;1.93;0.90;;;19.90;93.50;;;;;;5038031;28;20233;-72
2022/07/06 10:29:43;;;;;;;1.23;0.43;;;19.90;92.50;;;;;;5037390;28;20664;-71
2022/07/06 10:32:10;;;;;;;1.27;0.73;;;19.80;92.40;;;;;;5038932;28;20228;-71
2022/07/06 10:34:37;;;;;;;2.93;0.77;;;19.70;92.70;;;;;;5037073;28;20209;-71
2022/07/06 10:37:04;;;;;;;1.97;0.80;;;19.80;92.90;;;;;;5038677;28;20220;-71
2022/07/06 10:42:41;;;;;;;1.27;0.57;;;20.20;92.50;;;;;;5037123;28;20215;-71
2022/07/06 10:45:11;;;;;;;0.97;0.53;;;20.50;92.60;;;;;;5039273;28;20323;-71
2022/07/06 10:47:37;;;;;;;1.50;1.27;;;20.70;92.10;;;;;;5036914;28;20764;-71
2022/07/06 10:50:05;;;;;;;2.63;1.67;;;20.70;91.70;;;;;;5034843;28;20223;-71
2022/07/06 10:52:49;;;;;;;1.03;0.73;;;20.60;91.80;;;;;;5037157;28;20625;-71
2022/07/06 10:55:35;;;;;;;2.83;0.90;;;20.60;92.50;;;;;;5034557;28;20204;-71
2022/07/06 10:58:03;;;;;;;3.00;0.87;;;20.70;92.00;;;;;;5038468;28;20589;-71
2022/07/06 11:00:54;;;;;;;2.43;0.80;;;20.70;92.40;;;;;;5036509;28;20204;-71
2022/07/06 11:03:35;;;;;;;1.53;0.60;;;20.60;92.30;;;;;;5024284;28;20199;-71
2022/07/06 11:08:52;;;;;;;1.60;0.80;;;20.10;93.20;;;;;;5020798;28;20236;-71
2022/07/06 11:11:40;;;;;;;1.73;0.90;;;20.20;93.30;;;;;;5037530;28;20188;-71
2022/07/06 11:14:09;;;;;;;1.80;0.90;;;20.30;92.90;;;;;;5039534;28;20220;-71
2022/07/06 11:16:39;;;;;;;1.20;0.63;;;20.40;92.90;;;;;;5035861;28;20208;-71
2022/07/06 11:19:09;;;;;;;3.33;0.70;;;20.50;92.50;;;;;;5033932;28;20718;-71
2022/07/06 11:21:41;;;;;;;2.13;0.77;;;20.60;92.60;;;;;;5037093;28;20212;-71
2022/07/06 11:24:11;;;;;;;1.87;0.70;;;20.70;92.10;;;;;;5035230;28;20663;-71
2022/07/06 11:26:40;;;;;;;1.67;0.77;;;20.40;92.20;;;;;;5037429;28;20228;-71
2022/07/06 11:29:08;;;;;;;1.53;0.80;;;20.40;92.50;;;;;;5036898;28;20232;-71
2022/07/06 11:34:57;;;;;;;2.30;0.60;;;20.70;92.30;;;;;;5041189;28;20192;-71
2022/07/06 11:37:25;;;;;;;2.77;0.90;;;20.70;91.30;;;;;;5034739;28;20275;-71
2022/07/06 11:39:52;;;;;;;1.93;1.00;;;20.90;91.50;;;;;;5038347;28;20585;-71
2022/07/06 11:42:20;;;;;;;1.63;0.63;;;21.10;91.20;;;;;;5036722;28;20199;-71
2022/07/06 11:44:48;;;;;;;1.60;0.50;;;20.90;90.70;;;;;;5036596;28;20655;-71
2022/07/06 11:47:15;;;;;;;1.23;0.80;;;20.90;91.10;;;;;;5037275;28;20238;-71
2022/07/06 11:49:42;;;;;;;4.50;1.37;;;21.00;91.60;;;;;;5040778;28;20210;-72
2022/07/06 11:52:11;;;;;;;1.63;1.03;;;20.90;91.10;;;;;;5035528;28;20279;-71
2022/07/06 11:54:38;;;;;;;1.70;0.80;;;20.80;91.30;;;;;;5040020;28;20200;-71
2022/07/06 11:57:24;;;;;;;1.63;0.70;;;20.80;91.50;;;;;;5037715;28;20208;-71
2022/07/06 11:59:52;;;;;;;2.10;0.60;;;20.90;91.70;;;;;;5036277;28;20204;-71
2022/07/06 12:02:19;;;;;;;2.57;0.90;;;21.00;91.80;;;;;;5034753;28;20201;-71
2022/07/06 12:04:46;;;;;;;1.23;0.67;;;20.80;91.50;;;;;;5034402;28;20679;-71
2022/07/06 12:07:19;;;;;;;3.23;0.90;;;20.70;91.70;;;;;;5028503;28;20203;-71
2022/07/06 12:09:47;;;;;;;1.80;0.73;;;20.60;92.30;;;;;;5040194;28;20223;-71
2022/07/06 12:12:16;;;;;;;0.87;0.50;;;20.80;92.10;;;;;;5046388;28;20216;-71
2022/07/06 12:14:44;;;;;;;2.07;0.80;;;20.90;92.10;;;;;;5039898;28;20201;-71
2022/07/06 12:17:13;;;;;;;2.33;0.93;;;21.10;92.00;;;;;;5027578;28;20234;-72
2022/07/06 12:19:40;;;;;;;3.53;0.80;;;21.40;91.90;;;;;;5036413;28;20204;-72
2022/07/06 12:22:09;;;;;;;4.78;0.80;;;21.70;91.60;;;;;;5036193;28;20457;-72
2022/07/06 12:24:37;;;;;;;0.60;0.52;;;21.90;91.20;;;;;;5034469;28;20673;-72
2022/07/06 12:27:23;;;;;;;3.97;0.98;;;22.00;91.20;;;;;;5026467;28;20212;-72
2022/07/06 12:29:51;;;;;;;1.07;0.87;;;22.20;90.70;;;;;;5043098;28;20211;-72
2022/07/06 12:32:19;;;;;;;1.63;1.20;;;22.10;90.60;;;;;;5031797;28;20208;-72
2022/07/06 12:34:46;;;;;;;4.53;1.33;;;22.10;90.80;;;;;;5030647;28;20236;-71
2022/07/06 12:37:14;;;;;;;3.33;1.00;;;21.70;90.80;;;;;;5028434;28;20720;-72
2022/07/06 12:39:45;;;;;;;1.00;0.90;;;21.60;91.30;;;;;;5039356;28;20556;-72
2022/07/06 12:42:33;;;;;;;3.70;1.00;;;21.50;90.70;;;;;;5028270;28;20208;-71
2022/07/06 12:45:02;;;;;;;1.37;0.80;;;21.40;91.30;;;;;;5031834;28;20296;-71
2022/07/06 12:47:28;;;;;;;1.27;0.77;;;21.40;91.50;;;;;;5033821;28;20197;-72
2022/07/06 12:50:07;;;;;;;1.67;0.70;;;21.30;91.00;;;;;;5036932;28;20208;-71
2022/07/06 12:52:35;;;;;;;1.70;0.77;;;21.20;91.30;;;;;;5035740;28;20662;-72
2022/07/06 12:55:03;;;;;;;2.30;1.00;;;21.20;90.90;;;;;;5033560;28;20292;-72
2022/07/06 12:57:44;;;;;;;2.63;0.90;;;21.30;90.80;;;;;;5038566;28;20201;-72
2022/07/06 13:00:13;;;;;;;33.93;3.97;;;21.40;90.60;;;;;;5035720;28;20192;-71
2022/07/06 13:02:40;;;;;;;10.10;1.08;;;21.60;90.40;;;;;;5035074;28;20207;-72
2022/07/06 13:05:09;;;;;;;7.20;1.17;;;21.80;89.50;;;;;;5041091;28;20715;-72
2022/07/06 13:07:49;;;;;;;5.03;0.90;;;21.90;88.80;;;;;;5036677;28;20197;-72
2022/07/06 13:10:17;;;;;;;2.13;0.80;;;22.00;88.00;;;;;;5034348;28;20207;-71
2022/07/06 13:12:44;;;;;;;1.13;0.93;;;22.00;89.00;;;;;;5032777;28;20694;-72